createdAt,value
2023-03-02T00:01:08.447Z,5.49
2023-03-02T00:03:42.445Z,5.41
2023-03-02T00:06:17.205Z,5.39
2023-03-02T00:08:50.081Z,5.34
2023-03-02T00:11:22.976Z,5.35
2023-03-02T00:13:55.454Z,5.36
2023-03-02T00:16:28.246Z,5.43
2023-03-02T00:19:01.153Z,5.33
2023-03-02T00:21:35.500Z,5.33
2023-03-02T00:24:08.894Z,5.33
2023-03-02T00:26:41.636Z,5.25
2023-03-02T00:29:14.347Z,5.24
2023-03-02T00:31:47.233Z,5.21
2023-03-02T00:34:21.194Z,5.20
2023-03-02T00:36:55.407Z,5.22
2023-03-02T00:39:28.164Z,5.19
2023-03-02T00:42:00.997Z,5.22
2023-03-02T00:44:34.193Z,5.22
2023-03-02T00:47:07.298Z,5.27
2023-03-02T00:49:39.830Z,5.24
2023-03-02T00:52:14.059Z,5.26
2023-03-02T00:54:46.857Z,5.23
2023-03-02T00:57:20.392Z,5.18
2023-03-02T00:59:53.220Z,5.24
2023-03-02T01:02:30.835Z,5.23
2023-03-02T01:05:03.752Z,5.20
2023-03-02T01:07:38.027Z,5.25
2023-03-02T01:10:12.266Z,5.19
2023-03-02T01:12:45.143Z,5.20
2023-03-02T01:15:17.871Z,5.17
2023-03-02T01:17:50.674Z,5.21
2023-03-02T01:20:23.274Z,5.20
2023-03-02T01:22:57.578Z,5.18
2023-03-02T01:25:30.304Z,5.14
2023-03-02T01:28:03.052Z,5.20
2023-03-02T01:30:35.921Z,5.20
2023-03-02T01:33:09.300Z,5.18
2023-03-02T01:35:42.037Z,5.15
2023-03-02T01:38:16.505Z,5.12
2023-03-02T01:40:49.331Z,5.10
2023-03-02T01:43:22.236Z,5.09
2023-03-02T01:45:57.152Z,5.13
2023-03-02T01:48:55.564Z,5.15
2023-03-02T01:51:48.857Z,5.04
2023-03-02T01:54:24.428Z,5.08
2023-03-02T01:57:05.250Z,5.04
2023-03-02T01:59:42.521Z,5.09
2023-03-02T02:02:15.287Z,5.15
2023-03-02T02:04:50.236Z,5.18
2023-03-02T02:07:22.971Z,5.08
2023-03-02T02:09:57.604Z,5.08
2023-03-02T02:12:31.729Z,5.08
2023-03-02T02:15:05.860Z,5.00
2023-03-02T02:17:38.858Z,5.02
2023-03-02T02:20:24.124Z,5.04
2023-03-02T02:23:07.067Z,4.99
2023-03-02T02:25:49.167Z,4.98
2023-03-02T02:28:29.018Z,5.00
2023-03-02T02:31:08.189Z,5.04
2023-03-02T02:33:43.098Z,5.03
2023-03-02T02:36:20.092Z,4.98
2023-03-02T02:38:56.687Z,4.97
2023-03-02T02:41:33.941Z,4.89
2023-03-02T02:44:11.003Z,4.94
2023-03-02T02:46:44.783Z,4.87
2023-03-02T02:49:31.190Z,4.87
2023-03-02T02:52:06.370Z,4.82
2023-03-02T02:54:39.934Z,4.87
2023-03-02T02:57:17.783Z,4.84
2023-03-02T02:59:54.457Z,4.85
2023-03-02T03:02:29.986Z,4.81
2023-03-02T03:05:03.829Z,4.79
2023-03-02T03:07:39.837Z,4.83
2023-03-02T03:10:19.256Z,4.73
2023-03-02T03:12:52.874Z,4.86
2023-03-02T03:15:28.525Z,4.89
2023-03-02T03:18:01.314Z,4.92
2023-03-02T03:20:34.383Z,4.78
2023-03-02T03:23:07.025Z,4.80
2023-03-02T03:25:41.776Z,4.82
2023-03-02T03:28:15.643Z,4.82
2023-03-02T03:30:50.058Z,4.78
2023-03-02T03:33:23.112Z,4.82
2023-03-02T03:35:55.922Z,4.74
2023-03-02T03:38:29.268Z,4.82
2023-03-02T03:41:02.187Z,4.72
2023-03-02T03:43:35.560Z,4.75
2023-03-02T03:46:11.022Z,4.68
2023-03-02T03:48:43.854Z,4.81
2023-03-02T03:51:17.752Z,4.78
2023-03-02T03:53:59.850Z,4.73
2023-03-02T03:56:39.303Z,4.77
2023-03-02T03:59:15.068Z,4.75
2023-03-02T04:01:56.852Z,4.74
2023-03-02T04:04:34.329Z,4.69
2023-03-02T04:07:11.276Z,4.68
2023-03-02T04:09:44.758Z,4.69
2023-03-02T04:12:19.409Z,4.66
2023-03-02T04:14:56.611Z,4.62
2023-03-02T04:17:31.165Z,4.65
2023-03-02T04:20:07.684Z,4.62
2023-03-02T04:22:40.931Z,4.64
2023-03-02T04:25:15.273Z,4.70
2023-03-02T04:27:50.117Z,4.61
2023-03-02T04:30:26.044Z,4.58
2023-03-02T04:33:00.828Z,4.62
2023-03-02T04:35:35.141Z,4.50
2023-03-02T04:38:09.175Z,4.49
2023-03-02T04:40:42.234Z,4.57
2023-03-02T04:43:15.063Z,4.45
2023-03-02T04:45:48.144Z,4.53
2023-03-02T04:48:22.939Z,4.60
2023-03-02T04:50:55.738Z,4.49
2023-03-02T04:53:28.418Z,4.52
2023-03-02T04:56:01.286Z,4.45
2023-03-02T04:58:33.921Z,4.54
2023-03-02T05:01:07.380Z,4.47
2023-03-02T05:03:41.543Z,4.49
2023-03-02T05:06:14.640Z,4.50
2023-03-02T05:08:47.269Z,4.46
2023-03-02T05:11:26.085Z,4.49
2023-03-02T05:14:00.943Z,4.46
2023-03-02T05:16:37.130Z,4.52
2023-03-02T05:19:13.417Z,4.53
2023-03-02T05:21:46.583Z,4.43
2023-03-02T05:24:19.367Z,4.46
2023-03-02T05:26:52.035Z,4.49
2023-03-02T05:29:24.714Z,4.44
2023-03-02T05:31:57.591Z,4.46
2023-03-02T05:34:31.705Z,4.40
2023-03-02T05:37:04.444Z,4.39
2023-03-02T05:39:37.233Z,4.34
2023-03-02T05:42:10.449Z,4.34
2023-03-02T05:44:43.186Z,4.37
2023-03-02T05:47:15.918Z,4.36
2023-03-02T05:49:49.968Z,4.31
2023-03-02T05:52:22.716Z,4.34
2023-03-02T05:54:56.277Z,4.23
2023-03-02T05:57:30.357Z,4.19
2023-03-02T06:00:04.782Z,4.18
2023-03-02T06:02:45.252Z,4.19
2023-03-02T06:05:21.741Z,4.19
2023-03-02T06:07:54.805Z,4.26
2023-03-02T06:10:27.949Z,4.24
2023-03-02T06:13:00.944Z,4.19
2023-03-02T06:15:33.438Z,4.19
2023-03-02T06:18:06.196Z,4.16
2023-03-02T06:20:40.901Z,4.14
2023-03-02T06:23:14.089Z,4.17
2023-03-02T06:25:48.794Z,4.16
2023-03-02T06:28:22.012Z,4.10
2023-03-02T06:30:54.781Z,4.11
2023-03-02T06:33:27.571Z,4.14
2023-03-02T06:36:01.865Z,4.07
2023-03-02T06:38:35.000Z,4.18
2023-03-02T06:41:07.749Z,4.12
2023-03-02T06:43:40.780Z,4.19
2023-03-02T06:46:14.317Z,4.22
2023-03-02T06:48:47.077Z,4.15
2023-03-02T06:51:21.121Z,4.17
2023-03-02T06:53:53.893Z,4.19
2023-03-02T06:56:26.633Z,4.14
2023-03-02T06:58:59.597Z,4.20
2023-03-02T07:01:35.682Z,4.23
2023-03-02T07:04:08.584Z,4.22
2023-03-02T07:06:42.697Z,4.19
2023-03-02T07:09:15.902Z,4.22
2023-03-02T07:11:48.607Z,4.21
2023-03-02T07:14:21.423Z,4.25
2023-03-02T07:16:56.636Z,4.22
2023-03-02T07:19:29.383Z,4.20
2023-03-02T07:22:03.671Z,4.29
2023-03-02T07:24:36.343Z,4.29
2023-03-02T07:27:09.099Z,4.26
2023-03-02T07:29:41.902Z,4.23
2023-03-02T07:32:14.732Z,4.24
2023-03-02T07:34:47.310Z,4.26
2023-03-02T07:37:21.368Z,4.27
2023-03-02T07:39:55.260Z,4.36
2023-03-02T07:42:27.950Z,4.33
2023-03-02T07:45:04.420Z,4.38
2023-03-02T07:47:37.072Z,4.32
2023-03-02T07:50:11.279Z,4.39
2023-03-02T07:52:45.458Z,4.41
2023-03-02T07:55:18.346Z,4.38
2023-03-02T07:57:50.965Z,4.46
2023-03-02T08:00:24.225Z,4.43
2023-03-02T08:02:57.104Z,4.54
2023-03-02T08:05:29.865Z,4.55
2023-03-02T08:08:03.890Z,4.58
2023-03-02T08:10:37.368Z,4.59
2023-03-02T08:13:10.244Z,4.67
2023-03-02T08:15:43.037Z,4.71
2023-03-02T08:18:15.547Z,4.72
2023-03-02T08:20:48.304Z,4.74
2023-03-02T08:23:22.621Z,4.79
2023-03-02T08:25:57.290Z,4.90
2023-03-02T08:28:30.066Z,4.96
2023-03-02T08:31:04.507Z,5.24
2023-03-02T08:33:37.286Z,5.30
2023-03-02T08:36:13.905Z,5.26
2023-03-02T08:38:48.672Z,5.25
2023-03-02T08:41:23.479Z,5.27
2023-03-02T08:43:57.160Z,5.26
2023-03-02T08:46:30.605Z,5.29
2023-03-02T08:49:03.502Z,5.32
2023-03-02T08:51:36.249Z,5.34
2023-03-02T08:54:11.058Z,5.43
2023-03-02T08:56:44.535Z,5.49
2023-03-02T08:59:18.363Z,5.51
2023-03-02T09:01:51.053Z,5.50
2023-03-02T09:04:23.838Z,5.61
2023-03-02T09:06:56.738Z,5.65
2023-03-02T09:09:30.817Z,5.60
2023-03-02T09:12:03.549Z,5.67
2023-03-02T09:14:36.256Z,5.72
2023-03-02T09:17:09.164Z,5.75
2023-03-02T09:19:44.509Z,5.79
2023-03-02T09:22:17.624Z,5.83
2023-03-02T09:24:51.800Z,5.90
2023-03-02T09:27:24.533Z,5.96
2023-03-02T09:29:57.579Z,5.99
2023-03-02T09:32:30.669Z,6.06
2023-03-02T09:35:03.645Z,6.15
2023-03-02T09:37:38.964Z,6.21
2023-03-02T09:40:19.988Z,6.32
2023-03-02T09:43:12.657Z,6.52
2023-03-02T09:45:58.509Z,6.58
2023-03-02T09:48:39.677Z,6.80
2023-03-02T09:51:25.091Z,6.87
2023-03-02T09:54:04.517Z,6.98
2023-03-02T09:56:43.875Z,7.08
2023-03-02T09:59:24.181Z,7.02
2023-03-02T10:02:02.182Z,7.14
2023-03-02T10:04:42.204Z,7.23
2023-03-02T10:07:17.314Z,7.35
2023-03-02T10:09:50.400Z,7.55
2023-03-02T10:12:37.785Z,7.55
2023-03-02T10:15:15.734Z,7.68
2023-03-02T10:17:59.583Z,7.86
2023-03-02T10:20:37.939Z,8.01
2023-03-02T10:23:28.831Z,8.13
2023-03-02T10:26:10.950Z,8.11
2023-03-02T10:28:50.344Z,8.28
2023-03-02T10:31:28.486Z,8.34
2023-03-02T10:34:01.923Z,8.51
2023-03-02T10:36:39.289Z,8.66
2023-03-02T10:39:15.156Z,8.56
2023-03-02T10:41:53.088Z,8.81
2023-03-02T10:44:32.579Z,8.81
2023-03-02T10:47:07.480Z,8.87
2023-03-02T10:49:43.557Z,9.18
2023-03-02T10:52:17.786Z,9.24
2023-03-02T10:54:52.668Z,9.27
2023-03-02T10:57:31.205Z,9.38
2023-03-02T11:00:17.419Z,9.45
2023-03-02T11:02:51.980Z,9.59
2023-03-02T11:05:29.735Z,9.83
2023-03-02T11:08:04.838Z,9.97
2023-03-02T11:10:39.445Z,9.92
2023-03-02T11:13:19.384Z,9.91
2023-03-02T11:15:55.910Z,10.08
2023-03-02T11:18:34.579Z,10.14
2023-03-02T11:21:11.739Z,10.32
2023-03-02T11:23:57.221Z,10.50
2023-03-02T11:26:35.508Z,10.43
2023-03-02T11:29:15.652Z,10.47
2023-03-02T11:31:53.467Z,10.11
2023-03-02T11:34:33.877Z,10.59
2023-03-02T11:37:16.505Z,10.34
2023-03-02T11:40:05.136Z,10.49
2023-03-02T11:42:41.407Z,10.72
2023-03-02T11:45:21.929Z,10.75
2023-03-02T11:48:03.493Z,10.92
2023-03-02T11:50:46.900Z,10.68
2023-03-02T11:53:22.060Z,10.81
2023-03-02T11:55:54.897Z,10.90
2023-03-02T11:58:30.694Z,10.89
2023-03-02T12:01:04.742Z,10.99
2023-03-02T12:03:41.890Z,11.37
2023-03-02T12:06:30.578Z,11.43
2023-03-02T12:09:26.528Z,11.26
2023-03-02T12:12:01.799Z,11.39
2023-03-02T12:14:39.073Z,11.48
2023-03-02T12:17:33.084Z,11.49
2023-03-02T12:20:26.912Z,11.48
2023-03-02T12:23:22.378Z,11.63
2023-03-02T12:26:08.752Z,11.44
2023-03-02T12:28:41.949Z,11.56
2023-03-02T12:31:14.732Z,11.83
2023-03-02T12:33:49.140Z,12.12
2023-03-02T12:36:30.505Z,11.97
2023-03-02T12:39:21.957Z,12.22
2023-03-02T12:42:10.403Z,12.50
2023-03-02T12:44:53.077Z,12.16
2023-03-02T12:47:30.029Z,12.10
2023-03-02T12:50:06.528Z,12.30
2023-03-02T12:52:40.736Z,12.43
2023-03-02T12:55:19.108Z,12.36
2023-03-02T12:57:54.607Z,12.49
2023-03-02T13:00:30.208Z,12.62
2023-03-02T13:03:03.377Z,12.87
2023-03-02T13:05:37.668Z,12.81
2023-03-02T13:08:18.531Z,12.66
2023-03-02T13:10:53.219Z,12.88
2023-03-02T13:13:28.261Z,12.82
2023-03-02T13:16:02.921Z,12.58
2023-03-02T13:18:39.639Z,12.52
2023-03-02T13:21:15.853Z,12.65
2023-03-02T13:23:51.759Z,12.91
2023-03-02T13:26:30.058Z,12.84
2023-03-02T13:29:05.407Z,13.02
2023-03-02T13:31:38.474Z,13.06
2023-03-02T13:34:21.829Z,12.90
2023-03-02T13:36:55.624Z,13.05
2023-03-02T13:39:31.541Z,13.24
2023-03-02T13:42:04.840Z,13.33
2023-03-02T13:44:37.536Z,13.22
2023-03-02T13:47:23.102Z,13.24
2023-03-02T13:49:55.852Z,13.24
2023-03-02T13:52:31.317Z,13.26
2023-03-02T13:55:05.960Z,13.37
2023-03-02T13:57:38.751Z,13.08
2023-03-02T14:00:14.904Z,13.06
2023-03-02T14:02:48.715Z,13.20
2023-03-02T14:05:23.832Z,13.23
2023-03-02T14:07:56.686Z,12.32
2023-03-02T14:10:30.838Z,12.62
2023-03-02T14:13:07.265Z,12.48
2023-03-02T14:15:43.790Z,12.23
2023-03-02T14:18:29.469Z,12.50
2023-03-02T14:21:02.407Z,12.57
2023-03-02T14:23:35.020Z,12.50
2023-03-02T14:26:21.927Z,12.55
2023-03-02T14:29:04.924Z,12.42
2023-03-02T14:31:38.429Z,12.40
2023-03-02T14:34:13.963Z,12.23
2023-03-02T14:36:50.612Z,12.13
2023-03-02T14:39:28.339Z,12.13
2023-03-02T14:42:02.450Z,11.99
2023-03-02T14:44:35.422Z,11.87
2023-03-02T14:47:10.019Z,11.79
2023-03-02T14:49:42.952Z,11.78
2023-03-02T14:52:17.189Z,11.66
2023-03-02T14:54:54.035Z,11.50
2023-03-02T14:57:30.306Z,11.52
2023-03-02T15:00:03.118Z,11.44
2023-03-02T15:02:36.114Z,11.39
2023-03-02T15:05:09.266Z,11.29
2023-03-02T15:07:41.991Z,11.33
2023-03-02T15:10:17.275Z,11.18
2023-03-02T15:12:52.031Z,11.25
2023-03-02T15:15:26.248Z,11.20
2023-03-02T15:17:59.102Z,11.04
2023-03-02T15:20:32.157Z,11.11
2023-03-02T15:23:04.833Z,10.97
2023-03-02T15:25:37.675Z,10.97
2023-03-02T15:28:11.753Z,11.04
2023-03-02T15:30:44.480Z,10.99
2023-03-02T15:33:17.496Z,10.81
2023-03-02T15:35:54.945Z,10.85
2023-03-02T15:38:28.221Z,10.82
2023-03-02T15:41:05.114Z,10.75
2023-03-02T15:43:39.474Z,10.62
2023-03-02T15:46:12.412Z,10.71
2023-03-02T15:48:44.974Z,10.70
2023-03-02T15:51:17.790Z,10.63
2023-03-02T15:53:50.488Z,10.65
2023-03-02T15:56:26.508Z,10.60
2023-03-02T15:59:02.501Z,10.59
2023-03-02T16:01:35.309Z,10.56
2023-03-02T16:04:08.187Z,10.54
2023-03-02T16:06:40.989Z,10.53
2023-03-02T16:09:13.749Z,10.50
2023-03-02T16:11:46.462Z,10.49
2023-03-02T16:14:20.517Z,10.45
2023-03-02T16:16:53.505Z,10.44
2023-03-02T16:19:26.688Z,10.33
2023-03-02T16:21:59.434Z,10.34
2023-03-02T16:24:32.402Z,10.20
2023-03-02T16:27:05.146Z,10.30
2023-03-02T16:29:39.254Z,10.26
2023-03-02T16:32:12.229Z,10.28
2023-03-02T16:34:44.896Z,10.24
2023-03-02T16:37:18.174Z,10.25
2023-03-02T16:39:50.984Z,10.20
2023-03-02T16:42:23.786Z,10.21
2023-03-02T16:44:58.775Z,10.15
2023-03-02T16:47:31.726Z,10.11
2023-03-02T16:50:04.725Z,10.06
2023-03-02T16:52:37.737Z,10.04
2023-03-02T16:55:12.929Z,10.00
2023-03-02T16:57:45.952Z,10.01
2023-03-02T17:00:22.081Z,9.95
2023-03-02T17:02:55.237Z,9.90
2023-03-02T17:05:27.897Z,9.86
2023-03-02T17:08:02.872Z,9.91
2023-03-02T17:10:35.598Z,9.84
2023-03-02T17:13:09.446Z,9.85
2023-03-02T17:15:44.021Z,9.80
2023-03-02T17:18:17.241Z,9.75
2023-03-02T17:20:52.206Z,9.74
2023-03-02T17:23:27.069Z,9.72
2023-03-02T17:25:59.896Z,9.66
2023-03-02T17:28:32.694Z,9.62
2023-03-02T17:31:07.158Z,9.65
2023-03-02T17:33:40.017Z,9.58
2023-03-02T17:36:12.856Z,9.57
2023-03-02T17:38:48.398Z,9.57
2023-03-02T17:41:21.249Z,9.53
2023-03-02T17:43:53.989Z,9.52
2023-03-02T17:46:29.890Z,9.48
2023-03-02T17:49:03.109Z,9.46
2023-03-02T17:51:36.131Z,9.36
2023-03-02T17:54:08.936Z,9.38
2023-03-02T17:56:41.952Z,9.35
2023-03-02T17:59:14.736Z,9.33
2023-03-02T18:01:49.368Z,9.29
2023-03-02T18:04:22.201Z,9.27
2023-03-02T18:06:55.517Z,9.25
2023-03-02T18:09:28.214Z,9.21
2023-03-02T18:12:02.491Z,9.17
2023-03-02T18:14:36.592Z,9.13
2023-03-02T18:17:10.819Z,9.11
2023-03-02T18:19:43.515Z,9.07
2023-03-02T18:22:16.298Z,9.05
2023-03-02T18:24:50.513Z,9.02
2023-03-02T18:27:23.284Z,8.98
2023-03-02T18:29:56.110Z,8.97
2023-03-02T18:32:30.181Z,8.92
2023-03-02T18:35:02.897Z,8.92
2023-03-02T18:37:35.902Z,8.86
2023-03-02T18:40:11.177Z,8.83
2023-03-02T18:42:43.889Z,8.82
2023-03-02T18:45:23.405Z,8.75
2023-03-02T18:47:58.990Z,8.73
2023-03-02T18:50:31.853Z,8.71
2023-03-02T18:53:04.535Z,8.69
2023-03-02T18:55:38.459Z,8.66
2023-03-02T18:58:19.040Z,8.56
2023-03-02T19:00:54.262Z,8.48
2023-03-02T19:03:28.812Z,8.51
2023-03-02T19:06:02.338Z,8.44
2023-03-02T19:08:35.746Z,8.44
2023-03-02T19:11:09.020Z,8.48
2023-03-02T19:13:41.986Z,8.50
2023-03-02T19:16:15.099Z,8.44
2023-03-02T19:18:50.015Z,8.40
2023-03-02T19:21:22.806Z,8.32
2023-03-02T19:23:55.693Z,8.37
2023-03-02T19:26:28.462Z,8.30
2023-03-02T19:29:01.344Z,8.33
2023-03-02T19:31:34.158Z,8.30
2023-03-02T19:34:08.142Z,8.26
2023-03-02T19:36:40.944Z,8.25
2023-03-02T19:39:13.949Z,8.23
2023-03-02T19:41:46.942Z,8.20
2023-03-02T19:44:19.673Z,8.20
2023-03-02T19:46:53.060Z,8.19
2023-03-02T19:49:27.300Z,8.22
2023-03-02T19:52:00.879Z,8.14
2023-03-02T19:54:33.578Z,8.07
2023-03-02T19:57:07.831Z,8.07
2023-03-02T19:59:41.071Z,8.06
2023-03-02T20:02:15.194Z,8.01
2023-03-02T20:04:50.900Z,8.00
2023-03-02T20:07:23.940Z,7.86
2023-03-02T20:09:56.636Z,7.93
2023-03-02T20:12:29.570Z,7.85
2023-03-02T20:15:02.931Z,7.92
2023-03-02T20:17:35.718Z,7.89
2023-03-02T20:20:12.040Z,7.90
2023-03-02T20:22:45.443Z,7.79
2023-03-02T20:25:19.797Z,7.90
2023-03-02T20:27:53.147Z,7.75
2023-03-02T20:30:29.957Z,7.83
2023-03-02T20:33:03.203Z,7.79
2023-03-02T20:35:41.125Z,7.76
2023-03-02T20:38:18.461Z,7.73
2023-03-02T20:40:51.509Z,7.70
2023-03-02T20:43:24.436Z,7.76
2023-03-02T20:45:57.398Z,7.67
2023-03-02T20:48:30.204Z,7.59
2023-03-02T20:51:04.763Z,7.55
2023-03-02T20:53:37.619Z,7.64
2023-03-02T20:56:12.791Z,7.60
2023-03-02T20:58:47.096Z,7.57
2023-03-02T21:01:23.664Z,7.57
2023-03-02T21:03:57.060Z,7.47
2023-03-02T21:06:33.421Z,7.48
2023-03-02T21:09:09.487Z,7.55
2023-03-02T21:11:42.426Z,7.53
2023-03-02T21:14:15.711Z,7.43
2023-03-02T21:16:48.517Z,7.48
2023-03-02T21:19:21.604Z,7.46
2023-03-02T21:21:56.640Z,7.42
2023-03-02T21:24:29.855Z,7.40
2023-03-02T21:27:02.849Z,7.41
2023-03-02T21:29:35.397Z,7.37
2023-03-02T21:32:08.227Z,7.37
2023-03-02T21:34:40.981Z,7.35
2023-03-02T21:37:15.061Z,7.33
2023-03-02T21:39:48.477Z,7.26
2023-03-02T21:42:21.657Z,7.22
2023-03-02T21:44:55.487Z,7.26
2023-03-02T21:47:28.298Z,7.28
2023-03-02T21:50:01.008Z,7.23
2023-03-02T21:52:35.419Z,7.24
2023-03-02T21:55:09.524Z,7.22
2023-03-02T21:57:42.877Z,7.20
2023-03-02T22:00:22.168Z,7.26
2023-03-02T22:02:55.789Z,7.20
2023-03-02T22:05:29.185Z,7.10
2023-03-02T22:08:03.210Z,7.12
2023-03-02T22:10:40.752Z,7.08
2023-03-02T22:13:20.482Z,7.05
2023-03-02T22:15:59.102Z,7.03
2023-03-02T22:18:32.787Z,7.00
2023-03-02T22:21:24.076Z,7.00
2023-03-02T22:24:14.952Z,7.09
2023-03-02T22:26:50.800Z,7.01
2023-03-02T22:29:26.290Z,7.02
2023-03-02T22:32:13.862Z,7.05
2023-03-02T22:34:48.085Z,6.86
2023-03-02T22:37:23.333Z,6.97
2023-03-02T22:39:59.119Z,6.85
2023-03-02T22:42:32.176Z,6.87
2023-03-02T22:45:14.968Z,6.87
2023-03-02T22:47:51.692Z,6.97
2023-03-02T22:50:26.225Z,6.81
2023-03-02T22:53:01.408Z,6.81
2023-03-02T22:55:40.878Z,6.79
2023-03-02T22:58:32.608Z,6.74
2023-03-02T23:01:19.272Z,6.74
2023-03-02T23:03:54.504Z,6.71
2023-03-02T23:06:32.332Z,6.69
2023-03-02T23:09:07.715Z,6.66
2023-03-02T23:11:43.029Z,6.63
2023-03-02T23:14:23.166Z,6.72
2023-03-02T23:16:59.871Z,6.68
2023-03-02T23:19:33.378Z,6.64
2023-03-02T23:22:06.140Z,6.68
2023-03-02T23:24:38.835Z,6.71
2023-03-02T23:27:13.303Z,6.67
2023-03-02T23:29:46.146Z,6.62
2023-03-02T23:32:19.796Z,6.58
2023-03-02T23:34:52.901Z,6.65
2023-03-02T23:37:25.727Z,6.55
2023-03-02T23:39:58.667Z,6.58
2023-03-02T23:42:32.787Z,6.51
2023-03-02T23:45:06.475Z,6.52
2023-03-02T23:47:39.192Z,6.58
2023-03-02T23:50:13.047Z,6.51
2023-03-02T23:52:45.753Z,6.55
2023-03-02T23:55:18.999Z,6.51
2023-03-02T23:57:53.273Z,6.51
